createdAt,value
2022-11-21T00:02:12.672Z,18.73
2022-11-21T00:07:11.553Z,16.35
2022-11-21T00:09:40.906Z,15.23
2022-11-21T00:12:10.891Z,14.35
2022-11-21T00:14:40.326Z,14.25
2022-11-21T00:17:11.699Z,14.88
2022-11-21T00:22:10.519Z,14.43
2022-11-21T00:24:40.108Z,13.82
2022-11-21T00:27:10.233Z,15.07
2022-11-21T00:29:39.708Z,13.93
2022-11-21T00:32:10.069Z,15.45
2022-11-21T00:34:40.954Z,14.85
2022-11-21T00:37:11.158Z,13.57
2022-11-21T00:39:40.512Z,13.45
2022-11-21T00:42:10.959Z,15.33
2022-11-21T00:44:40.328Z,15.73
2022-11-21T00:47:10.601Z,17.00
2022-11-21T00:49:41.523Z,16.20
2022-11-21T00:52:11.268Z,18.23
2022-11-21T00:54:40.649Z,17.00
2022-11-21T00:57:10.760Z,16.03
2022-11-21T00:59:40.144Z,18.45
2022-11-21T01:02:10.936Z,15.93
2022-11-21T01:04:42.102Z,15.45
2022-11-21T01:07:14.727Z,18.83
2022-11-21T01:09:44.289Z,17.67
2022-11-21T01:12:15.287Z,17.42
2022-11-21T01:14:44.618Z,17.83
2022-11-21T01:17:14.853Z,15.13
2022-11-21T01:19:46.136Z,14.18
2022-11-21T01:22:16.308Z,14.55
2022-11-21T01:24:45.759Z,14.60
2022-11-21T01:27:15.568Z,13.30
2022-11-21T01:29:45.064Z,14.18
2022-11-21T01:32:15.034Z,12.93
2022-11-21T01:34:45.827Z,15.90
2022-11-21T01:37:15.606Z,14.80
2022-11-21T01:39:44.968Z,16.73
2022-11-21T01:42:15.535Z,15.07
2022-11-21T01:44:50.688Z,14.30
2022-11-21T01:47:22.975Z,14.27
2022-11-21T01:49:55.289Z,16.08
2022-11-21T01:52:28.983Z,14.30
2022-11-21T01:55:03.065Z,16.70
2022-11-21T01:57:37.411Z,15.13
2022-11-21T02:00:11.063Z,16.35
2022-11-21T02:02:44.004Z,14.85
2022-11-21T02:05:19.094Z,15.63
2022-11-21T02:07:51.384Z,15.98
2022-11-21T02:10:21.110Z,15.60
2022-11-21T02:12:53.494Z,15.02
2022-11-21T02:15:25.214Z,16.13
2022-11-21T02:17:55.200Z,16.83
2022-11-21T02:20:28.068Z,18.98
2022-11-21T02:23:06.990Z,16.95
2022-11-21T02:25:39.460Z,16.45
2022-11-21T02:28:11.431Z,17.50
2022-11-21T02:30:43.445Z,17.80
2022-11-21T02:33:14.757Z,16.83
2022-11-21T02:35:44.415Z,18.92
2022-11-21T02:38:19.931Z,19.55
2022-11-21T02:40:56.690Z,19.00
2022-11-21T02:43:30.139Z,18.88
2022-11-21T02:46:00.586Z,19.63
2022-11-21T02:48:31.150Z,20.45
2022-11-21T02:51:00.695Z,21.17
2022-11-21T02:53:30.433Z,21.20
2022-11-21T02:56:01.866Z,21.40
2022-11-21T02:58:32.320Z,22.40
2022-11-21T03:01:01.756Z,25.00
2022-11-21T03:03:31.571Z,23.48
2022-11-21T03:06:01.046Z,23.70
2022-11-21T03:08:31.271Z,23.20
2022-11-21T03:11:02.161Z,23.23
2022-11-21T03:13:32.260Z,23.13
2022-11-21T03:16:01.926Z,20.90
2022-11-21T03:18:31.650Z,23.00
2022-11-21T03:21:01.040Z,23.83
2022-11-21T03:23:30.993Z,24.05
2022-11-21T03:26:02.787Z,21.27
2022-11-21T03:28:33.288Z,20.27
2022-11-21T03:31:02.752Z,22.15
2022-11-21T03:33:33.017Z,20.13
2022-11-21T03:36:02.596Z,23.00
2022-11-21T03:38:33.008Z,22.35
2022-11-21T03:41:27.654Z,20.42
2022-11-21T03:43:58.584Z,20.23
2022-11-21T03:46:28.476Z,21.27
2022-11-21T03:48:58.662Z,18.50
2022-11-21T03:51:28.378Z,19.98
2022-11-21T03:53:58.574Z,20.85
2022-11-21T03:56:29.691Z,21.52
2022-11-21T03:59:00.003Z,18.63
2022-11-21T04:01:33.816Z,19.77
2022-11-21T04:04:06.881Z,19.52
2022-11-21T04:06:36.211Z,18.80
2022-11-21T04:09:06.501Z,19.92
2022-11-21T04:11:37.299Z,19.48
2022-11-21T04:14:07.127Z,19.92
2022-11-21T04:16:37.017Z,17.58
2022-11-21T04:19:06.609Z,17.23
2022-11-21T04:21:35.889Z,15.57
2022-11-21T04:24:06.555Z,16.33
2022-11-21T04:26:37.271Z,15.55
2022-11-21T04:29:07.436Z,16.60
2022-11-21T04:31:36.915Z,16.02
2022-11-21T04:34:06.847Z,17.57
2022-11-21T04:36:36.364Z,18.35
2022-11-21T04:39:06.750Z,17.42
2022-11-21T04:41:37.566Z,17.70
2022-11-21T04:44:07.923Z,17.58
2022-11-21T04:46:37.396Z,17.42
2022-11-21T04:49:07.351Z,17.80
2022-11-21T04:51:36.591Z,17.45
2022-11-21T04:54:06.631Z,17.48
2022-11-21T04:56:38.422Z,19.65
2022-11-21T04:59:08.419Z,18.83
2022-11-21T05:01:39.224Z,19.08
2022-11-21T05:04:08.910Z,20.17
2022-11-21T05:06:38.491Z,18.55
2022-11-21T05:09:08.735Z,18.30
2022-11-21T05:11:57.080Z,19.20
2022-11-21T05:14:27.844Z,19.67
2022-11-21T05:16:57.290Z,21.98
2022-11-21T05:19:27.248Z,21.05
2022-11-21T05:21:56.806Z,21.55
2022-11-21T05:24:27.397Z,20.33
2022-11-21T05:26:58.508Z,20.83
2022-11-21T05:29:28.779Z,18.75
2022-11-21T05:31:58.019Z,15.57
2022-11-21T05:34:29.014Z,14.98
2022-11-21T05:36:59.674Z,13.63
2022-11-21T05:42:03.202Z,14.05
2022-11-21T05:44:32.362Z,14.18
2022-11-21T05:47:01.636Z,13.23
2022-11-21T05:49:31.578Z,14.00
2022-11-21T05:52:00.954Z,16.17
2022-11-21T05:54:31.087Z,15.83
2022-11-21T05:57:02.521Z,16.00
2022-11-21T05:59:32.503Z,17.08
2022-11-21T06:02:19.215Z,17.10
2022-11-21T06:04:49.410Z,17.08
2022-11-21T06:07:18.728Z,16.42
2022-11-21T06:09:48.824Z,17.45
2022-11-21T06:12:24.178Z,18.40
2022-11-21T06:14:55.153Z,18.23
2022-11-21T06:17:24.653Z,16.30
2022-11-21T06:19:54.602Z,14.77
2022-11-21T06:22:24.063Z,14.07
2022-11-21T06:24:53.899Z,14.15
2022-11-21T06:27:24.612Z,15.02
2022-11-21T06:29:54.620Z,16.98
2022-11-21T06:32:23.910Z,15.40
2022-11-21T06:34:54.104Z,15.20
2022-11-21T06:37:23.679Z,15.93
2022-11-21T06:39:53.987Z,16.20
2022-11-21T06:42:24.822Z,17.50
2022-11-21T06:44:54.788Z,18.63
2022-11-21T06:47:24.308Z,19.35
2022-11-21T06:49:54.265Z,22.52
2022-11-21T06:52:23.515Z,20.85
2022-11-21T06:54:53.833Z,21.08
2022-11-21T06:57:24.625Z,21.35
2022-11-21T06:59:54.603Z,21.10
2022-11-21T07:02:23.855Z,21.05
2022-11-21T07:04:53.964Z,21.45
2022-11-21T07:07:23.660Z,19.50
2022-11-21T07:09:53.570Z,19.42
2022-11-21T07:12:41.775Z,19.77
2022-11-21T07:15:12.822Z,21.02
2022-11-21T07:17:42.172Z,20.77
2022-11-21T07:20:13.859Z,21.47
2022-11-21T07:25:12.798Z,22.45
2022-11-21T07:27:43.647Z,24.17
2022-11-21T07:30:14.657Z,23.95
2022-11-21T07:32:43.899Z,23.45
2022-11-21T07:35:14.113Z,24.67
2022-11-21T07:37:43.572Z,21.45
2022-11-21T07:40:15.085Z,22.83
2022-11-21T07:42:45.910Z,24.95
2022-11-21T07:45:17.515Z,23.27
2022-11-21T07:47:47.370Z,23.50
2022-11-21T07:50:17.613Z,22.30
2022-11-21T07:52:47.092Z,22.23
2022-11-21T07:55:17.032Z,22.77
2022-11-21T07:57:47.866Z,21.50
2022-11-21T08:00:19.128Z,19.95
2022-11-21T08:02:48.530Z,21.10
2022-11-21T08:05:18.234Z,23.27
2022-11-21T08:07:47.767Z,20.00
2022-11-21T08:10:17.995Z,19.50
2022-11-21T08:12:48.998Z,19.80
2022-11-21T08:15:18.812Z,18.52
2022-11-21T08:17:48.544Z,20.15
2022-11-21T08:20:18.526Z,21.60
2022-11-21T08:22:47.996Z,20.80
2022-11-21T08:25:17.988Z,21.73
2022-11-21T08:27:48.959Z,20.23
2022-11-21T08:30:18.622Z,22.90
2022-11-21T08:32:47.971Z,24.45
2022-11-21T08:35:18.559Z,22.75
2022-11-21T08:37:48.034Z,21.17
2022-11-21T08:40:18.340Z,21.83
2022-11-21T08:42:49.520Z,21.30
2022-11-21T08:45:19.428Z,21.13
2022-11-21T08:47:49.241Z,23.80
2022-11-21T08:52:49.143Z,21.55
2022-11-21T08:55:19.468Z,23.05
2022-11-21T08:57:50.439Z,19.15
2022-11-21T09:00:21.032Z,21.77
2022-11-21T09:02:50.736Z,21.35
2022-11-21T09:05:20.993Z,26.48
2022-11-21T09:07:50.570Z,23.98
2022-11-21T09:10:20.615Z,23.63
2022-11-21T09:12:51.452Z,24.42
2022-11-21T09:15:38.103Z,26.80
2022-11-21T09:18:08.374Z,28.58
2022-11-21T09:20:42.580Z,29.35
2022-11-21T09:23:14.564Z,29.17
2022-11-21T09:25:45.377Z,29.27
2022-11-21T09:28:16.699Z,29.48
2022-11-21T09:30:46.651Z,29.20
2022-11-21T09:33:18.317Z,31.02
2022-11-21T09:35:48.514Z,34.75
2022-11-21T09:38:23.646Z,33.53
2022-11-21T09:40:58.141Z,34.58
2022-11-21T09:43:54.471Z,34.00
2022-11-21T09:46:33.290Z,37.60
2022-11-21T09:49:06.760Z,35.47
2022-11-21T09:51:38.851Z,35.22
2022-11-21T09:54:15.292Z,41.60
2022-11-21T09:56:47.026Z,39.33
2022-11-21T09:59:32.950Z,41.95
2022-11-21T10:02:03.057Z,42.80
2022-11-21T10:04:33.484Z,43.92
2022-11-21T10:07:06.325Z,40.47
2022-11-21T10:09:49.164Z,38.72
2022-11-21T10:12:40.287Z,43.38
2022-11-21T10:15:23.894Z,36.70
2022-11-21T10:18:07.795Z,37.55
2022-11-21T10:20:50.353Z,36.67
2022-11-21T10:23:50.048Z,41.28
2022-11-21T10:26:24.708Z,38.13
2022-11-21T10:28:58.905Z,38.63
2022-11-21T10:31:33.408Z,39.75
2022-11-21T10:34:05.651Z,36.80
2022-11-21T10:36:39.767Z,38.33
2022-11-21T10:39:19.376Z,36.13
2022-11-21T10:41:52.906Z,32.38
2022-11-21T10:44:53.521Z,35.30
2022-11-21T10:47:29.217Z,32.60
2022-11-21T10:50:05.416Z,35.28
2022-11-21T10:52:37.465Z,34.58
2022-11-21T10:55:11.471Z,33.30
2022-11-21T10:57:45.583Z,34.05
2022-11-21T11:00:24.938Z,34.30
2022-11-21T11:03:19.397Z,32.13
2022-11-21T11:05:59.272Z,33.28
2022-11-21T11:08:32.043Z,34.97
2022-11-21T11:11:07.594Z,37.38
2022-11-21T11:13:56.536Z,39.75
2022-11-21T11:16:27.863Z,39.05
2022-11-21T11:19:01.786Z,37.78
2022-11-21T11:21:44.522Z,36.85
2022-11-21T11:24:24.866Z,34.75
2022-11-21T11:29:30.683Z,36.05
2022-11-21T11:32:04.743Z,35.78
2022-11-21T11:34:42.131Z,37.95
2022-11-21T11:37:15.380Z,38.03
2022-11-21T11:39:56.427Z,42.78
2022-11-21T11:43:08.884Z,39.65
2022-11-21T11:46:14.054Z,38.72
2022-11-21T11:49:11.448Z,37.25
2022-11-21T11:51:41.735Z,38.83
2022-11-21T11:54:18.487Z,42.65
2022-11-21T11:56:48.836Z,42.80
2022-11-21T12:01:57.768Z,37.88
2022-11-21T12:04:31.593Z,38.75
2022-11-21T12:10:06.537Z,38.60
2022-11-21T12:12:39.620Z,38.50
2022-11-21T12:15:34.187Z,39.67
2022-11-21T12:18:15.678Z,39.33
2022-11-21T12:20:55.283Z,37.60
2022-11-21T12:23:29.625Z,39.45
2022-11-21T12:26:09.644Z,37.75
2022-11-21T12:28:49.102Z,40.55
2022-11-21T12:31:25.050Z,46.08
2022-11-21T12:34:00.947Z,40.00
2022-11-21T12:36:37.337Z,41.70
2022-11-21T12:39:28.617Z,46.13
2022-11-21T12:42:25.796Z,43.17
2022-11-21T12:45:07.185Z,44.58
2022-11-21T12:48:36.183Z,43.53
2022-11-21T12:52:10.197Z,43.25
2022-11-21T12:55:08.729Z,45.83
2022-11-21T12:57:50.455Z,46.97
2022-11-21T13:00:25.767Z,46.05
2022-11-21T13:03:18.543Z,44.78
2022-11-21T13:05:53.409Z,45.70
2022-11-21T13:08:25.185Z,46.40
2022-11-21T13:11:17.075Z,44.03
2022-11-21T13:13:49.676Z,45.97
2022-11-21T13:16:37.109Z,49.33
2022-11-21T13:19:19.331Z,43.70
2022-11-21T13:21:50.973Z,44.72
2022-11-21T13:24:58.335Z,47.97
2022-11-21T13:27:39.233Z,44.97
2022-11-21T13:30:26.024Z,49.92
2022-11-21T13:32:56.957Z,47.72
2022-11-21T13:36:01.717Z,47.17
2022-11-21T13:38:31.495Z,52.92
2022-11-21T13:41:18.090Z,49.05
2022-11-21T13:43:49.266Z,47.95
2022-11-21T13:46:53.968Z,48.03
2022-11-21T13:49:28.296Z,49.38
2022-11-21T13:51:58.260Z,49.00
2022-11-21T13:55:12.773Z,48.83
2022-11-21T13:57:55.266Z,51.90
2022-11-21T14:01:15.128Z,51.15
2022-11-21T14:04:25.748Z,53.20
2022-11-21T14:06:55.496Z,53.80
2022-11-21T14:09:30.759Z,53.95
2022-11-21T14:12:03.528Z,54.58
2022-11-21T14:14:37.574Z,53.20
2022-11-21T14:17:32.040Z,52.15
2022-11-21T14:20:04.530Z,48.97
2022-11-21T14:22:45.613Z,56.67
2022-11-21T14:25:20.562Z,53.53
2022-11-21T14:27:54.516Z,52.05
2022-11-21T14:30:34.568Z,52.72
2022-11-21T14:33:32.456Z,56.13
2022-11-21T14:36:05.561Z,51.78
2022-11-21T14:38:42.297Z,53.72
2022-11-21T14:41:26.920Z,53.47
2022-11-21T14:44:18.206Z,57.25
2022-11-21T14:46:48.970Z,56.15
2022-11-21T14:49:29.630Z,56.42
2022-11-21T14:52:19.819Z,56.58
2022-11-21T14:55:28.660Z,54.42
2022-11-21T14:57:44.763Z,57.88
2022-11-21T15:00:57.604Z,57.55
2022-11-21T15:03:21.028Z,53.97
2022-11-21T15:06:04.560Z,55.00
2022-11-21T15:09:51.322Z,53.60
2022-11-21T15:11:30.221Z,53.73
2022-11-21T15:14:16.684Z,56.38
2022-11-21T15:16:49.375Z,54.00
2022-11-21T15:19:23.501Z,57.35
2022-11-21T15:21:57.575Z,55.72
2022-11-21T15:24:32.726Z,54.90
2022-11-21T15:27:02.716Z,56.72
2022-11-21T15:29:33.239Z,55.10
2022-11-21T15:32:15.644Z,56.60
2022-11-21T15:34:47.328Z,56.67
2022-11-21T15:37:20.655Z,57.22
2022-11-21T15:39:51.630Z,58.28
2022-11-21T15:42:36.690Z,58.53
2022-11-21T15:45:24.119Z,60.95
2022-11-21T15:47:55.885Z,55.17
2022-11-21T15:50:26.675Z,58.00
2022-11-21T15:52:57.930Z,59.45
2022-11-21T15:55:30.429Z,60.25
2022-11-21T15:58:00.347Z,56.78
2022-11-21T16:00:29.673Z,56.25
2022-11-21T16:02:59.647Z,57.25
2022-11-21T16:05:29.211Z,60.60
2022-11-21T16:08:00.710Z,59.13
2022-11-21T16:10:30.394Z,55.95
2022-11-21T16:13:00.372Z,56.88
2022-11-21T16:15:30.002Z,58.50
2022-11-21T16:17:59.712Z,61.40
2022-11-21T16:20:29.682Z,57.85
2022-11-21T16:23:01.059Z,63.40
2022-11-21T16:25:30.605Z,57.78
2022-11-21T16:28:05.742Z,62.53
2022-11-21T16:30:40.106Z,53.95
2022-11-21T16:33:09.874Z,60.63
2022-11-21T16:35:40.915Z,62.25
2022-11-21T16:38:12.571Z,58.33
2022-11-21T16:40:41.991Z,59.90
2022-11-21T16:43:13.328Z,58.85
2022-11-21T16:45:42.851Z,59.58
2022-11-21T16:48:12.683Z,58.95
2022-11-21T16:50:42.043Z,58.63
2022-11-21T16:53:14.077Z,56.73
2022-11-21T16:55:43.632Z,61.53
2022-11-21T16:58:13.716Z,59.20
2022-11-21T17:00:43.051Z,61.30
2022-11-21T17:03:12.881Z,60.80
2022-11-21T17:05:42.158Z,61.28
2022-11-21T17:08:13.885Z,59.38
2022-11-21T17:13:12.700Z,57.72
2022-11-21T17:15:42.188Z,61.88
2022-11-21T17:18:11.939Z,60.83
2022-11-21T17:20:41.596Z,61.65
2022-11-21T17:23:12.902Z,61.75
2022-11-21T17:25:42.412Z,60.72
2022-11-21T17:28:12.236Z,59.67
2022-11-21T17:30:44.466Z,56.60
2022-11-21T17:33:14.502Z,57.90
2022-11-21T17:35:44.530Z,59.97
2022-11-21T17:38:16.596Z,58.50
2022-11-21T17:40:45.939Z,58.13
2022-11-21T17:43:15.558Z,55.45
2022-11-21T17:45:45.225Z,58.60
2022-11-21T17:48:15.357Z,57.58
2022-11-21T17:50:44.824Z,56.53
2022-11-21T17:53:16.179Z,59.47
2022-11-21T17:58:15.389Z,54.72
2022-11-21T18:00:44.872Z,55.75
2022-11-21T18:03:14.691Z,53.75
2022-11-21T18:05:47.504Z,55.90
2022-11-21T18:08:22.597Z,57.22
2022-11-21T18:10:54.792Z,55.70
2022-11-21T18:13:24.581Z,55.35
2022-11-21T18:15:54.198Z,55.08
2022-11-21T18:18:23.959Z,55.22
2022-11-21T18:20:53.711Z,57.45
2022-11-21T18:23:25.068Z,52.97
2022-11-21T18:25:54.615Z,56.53
2022-11-21T18:28:24.650Z,58.40
2022-11-21T18:30:54.373Z,57.47
2022-11-21T18:33:24.355Z,60.10
2022-11-21T18:35:53.687Z,55.63
2022-11-21T18:38:47.695Z,55.33
2022-11-21T18:41:16.926Z,57.13
2022-11-21T18:43:52.005Z,56.05
2022-11-21T18:46:22.840Z,59.95
2022-11-21T18:49:02.833Z,54.70
2022-11-21T18:51:35.298Z,57.17
2022-11-21T18:54:08.814Z,54.30
2022-11-21T18:56:39.506Z,57.70
2022-11-21T18:59:10.054Z,56.92
2022-11-21T19:01:40.796Z,59.08
2022-11-21T19:04:11.319Z,57.25
2022-11-21T19:06:40.789Z,56.03
2022-11-21T19:09:12.472Z,59.77
2022-11-21T19:14:11.568Z,62.42
2022-11-21T19:16:41.194Z,60.63
2022-11-21T19:19:33.502Z,60.15
2022-11-21T19:22:02.067Z,58.05
2022-11-21T19:24:33.685Z,57.13
2022-11-21T19:27:04.896Z,57.15
2022-11-21T19:29:34.912Z,56.67
2022-11-21T19:32:04.330Z,57.65
2022-11-21T19:34:34.088Z,55.75
2022-11-21T19:37:03.386Z,54.45
2022-11-21T19:39:34.574Z,55.67
2022-11-21T19:42:04.172Z,58.35
2022-11-21T19:44:35.409Z,55.00
2022-11-21T19:47:04.964Z,54.42
2022-11-21T19:49:34.602Z,58.72
2022-11-21T19:52:04.011Z,56.53
2022-11-21T19:54:36.043Z,52.53
2022-11-21T19:57:10.740Z,58.58
2022-11-21T19:59:46.607Z,55.95
2022-11-21T20:02:19.713Z,58.50
2022-11-21T20:04:49.480Z,58.95
2022-11-21T20:07:18.971Z,55.92
2022-11-21T20:09:50.247Z,56.28
2022-11-21T20:12:19.716Z,56.47
2022-11-21T20:14:49.771Z,53.85
2022-11-21T20:17:19.303Z,53.75
2022-11-21T20:19:50.814Z,57.35
2022-11-21T20:22:20.562Z,66.07
2022-11-21T20:24:52.199Z,57.33
2022-11-21T20:27:21.537Z,55.85
2022-11-21T20:29:51.366Z,55.08
2022-11-21T20:32:21.016Z,55.55
2022-11-21T20:34:51.179Z,58.87
2022-11-21T20:37:20.399Z,60.80
2022-11-21T20:39:51.810Z,57.42
2022-11-21T20:42:21.051Z,58.67
2022-11-21T20:45:54.548Z,57.72
2022-11-21T20:47:40.027Z,51.70
2022-11-21T20:50:10.347Z,56.35
2022-11-21T20:55:32.299Z,56.25
2022-11-21T20:58:01.992Z,53.65
2022-11-21T21:00:32.003Z,54.97
2022-11-21T21:03:01.495Z,53.17
2022-11-21T21:05:31.652Z,50.97
2022-11-21T21:08:01.348Z,54.78
2022-11-21T21:10:51.480Z,56.63
2022-11-21T21:13:22.046Z,50.78
2022-11-21T21:15:51.830Z,50.95
2022-11-21T21:18:21.295Z,50.80
2022-11-21T21:21:15.437Z,55.23
2022-11-21T21:23:42.687Z,51.88
2022-11-21T21:26:16.544Z,51.45
2022-11-21T21:28:46.347Z,52.72
2022-11-21T21:31:18.177Z,53.22
2022-11-21T21:33:47.941Z,49.95
2022-11-21T21:36:19.466Z,53.37
2022-11-21T21:38:52.729Z,52.75
2022-11-21T21:41:25.593Z,50.90
2022-11-21T21:43:56.539Z,59.97
2022-11-21T21:46:29.366Z,57.88
2022-11-21T21:48:59.826Z,52.67
2022-11-21T21:51:31.535Z,54.70
2022-11-21T21:54:01.547Z,53.28
2022-11-21T21:56:33.942Z,50.17
2022-11-21T21:59:03.409Z,51.67
2022-11-21T22:01:34.404Z,50.80
2022-11-21T22:04:06.522Z,54.88
2022-11-21T22:06:36.948Z,53.17
2022-11-21T22:09:06.333Z,52.90
2022-11-21T22:11:40.367Z,51.85
2022-11-21T22:14:14.561Z,54.90
2022-11-21T22:16:45.285Z,55.80
2022-11-21T22:19:15.775Z,58.40
2022-11-21T22:21:46.002Z,55.45
2022-11-21T22:24:25.334Z,54.25
2022-11-21T22:26:57.903Z,55.67
2022-11-21T22:29:28.016Z,88.82
2022-11-21T22:31:57.719Z,52.92
2022-11-21T22:34:27.033Z,51.40
2022-11-21T22:36:57.102Z,51.80
2022-11-21T22:39:27.809Z,52.53
2022-11-21T22:44:29.698Z,52.03
2022-11-21T22:47:00.156Z,53.45
2022-11-21T22:49:29.451Z,55.13
2022-11-21T22:51:59.474Z,54.45
2022-11-21T22:54:29.708Z,55.80
2022-11-21T22:57:01.273Z,53.88
2022-11-21T23:02:00.755Z,55.92
2022-11-21T23:04:30.161Z,55.47
2022-11-21T23:07:00.120Z,58.47
2022-11-21T23:09:29.784Z,53.08
2022-11-21T23:12:01.384Z,56.67
2022-11-21T23:17:01.049Z,50.05
2022-11-21T23:19:30.550Z,55.50
2022-11-21T23:22:00.404Z,52.97
2022-11-21T23:24:29.951Z,53.25
2022-11-21T23:27:02.062Z,54.22
2022-11-21T23:29:31.922Z,51.70
2022-11-21T23:32:02.020Z,48.92
2022-11-21T23:34:31.627Z,50.45
2022-11-21T23:37:01.794Z,52.17
2022-11-21T23:39:31.775Z,51.13
2022-11-21T23:42:03.528Z,54.10
2022-11-21T23:44:32.871Z,52.72
2022-11-21T23:47:02.694Z,53.00
2022-11-21T23:49:32.448Z,50.83
2022-11-21T23:52:02.584Z,49.47
2022-11-21T23:54:31.797Z,51.35
2022-11-21T23:57:03.534Z,50.47
2022-11-21T23:59:33.418Z,51.58
